Time;durP1;ratioP1;P1;durP2;ratioP2;P2;SDS_P1;SDS_P2;PMS_P1;PMS_P2;Temp;Humidity;BMP_temperature;BMP_pressure;BME280_temperature;BME280_humidity;BME280_pressure;Samples;Min_cycle;Max_cycle;Signal;HPM_P1;HPM_P2
2023/06/14 00:04:20;;;;;;;18.05;13.82;;;12.40;99.90;;;;;;21067777;28;20086;-44
2023/06/14 00:14:22;;;;;;;16.13;13.40;;;12.40;99.90;;;;;;21070656;28;20093;-47
2023/06/14 00:24:23;;;;;;;13.35;9.75;;;12.30;99.90;;;;;;21069861;28;20124;-49
2023/06/14 00:34:25;;;;;;;7.78;5.40;;;12.20;99.90;;;;;;21068336;28;20041;-47
2023/06/14 00:44:27;;;;;;;8.30;4.53;;;12.20;99.90;;;;;;21067944;28;20036;-47
2023/06/14 00:54:28;;;;;;;4.63;3.40;;;12.10;99.90;;;;;;21049006;28;20039;-48
2023/06/14 01:04:30;;;;;;;3.72;3.33;;;11.90;99.90;;;;;;21031848;28;20040;-52
2023/06/14 01:14:34;;;;;;;3.83;3.33;;;11.80;99.90;;;;;;21065908;28;20027;-48
2023/06/14 01:24:35;;;;;;;4.95;3.38;;;11.70;99.90;;;;;;21065565;28;20028;-48
2023/06/14 01:34:37;;;;;;;4.88;3.50;;;11.60;99.90;;;;;;21062581;28;20044;-48
2023/06/14 01:44:41;;;;;;;7.22;3.25;;;11.70;99.90;;;;;;21064746;28;20052;-47
2023/06/14 01:54:43;;;;;;;5.60;4.45;;;11.60;99.90;;;;;;21064672;28;20503;-47
2023/06/14 02:04:47;;;;;;;5.82;3.92;;;11.70;99.90;;;;;;21073316;28;20036;-47
2023/06/14 02:14:48;;;;;;;7.22;5.07;;;11.70;99.90;;;;;;21095667;28;20055;-49
2023/06/14 02:24:52;;;;;;;7.03;6.05;;;11.60;99.90;;;;;;21061289;28;20036;-53
2023/06/14 02:34:54;;;;;;;5.57;4.68;;;11.60;99.90;;;;;;21078837;28;20448;-47
2023/06/14 02:44:56;;;;;;;7.13;5.68;;;11.60;99.90;;;;;;21077942;28;20089;-47
2023/06/14 02:54:57;;;;;;;10.10;8.27;;;11.60;99.90;;;;;;21059071;28;20086;-49
2023/06/14 03:05:01;;;;;;;9.75;8.35;;;11.50;99.90;;;;;;21075808;28;20538;-48
2023/06/14 03:15:04;;;;;;;11.30;7.43;;;11.50;99.90;;;;;;21057705;28;20032;-48
2023/06/14 03:25:10;;;;;;;8.75;5.88;;;11.50;99.90;;;;;;21072777;28;20032;-49
2023/06/14 03:35:17;;;;;;;6.68;5.38;;;11.50;99.90;;;;;;21055735;28;20074;-48
2023/06/14 03:45:20;;;;;;;6.15;4.07;;;11.50;99.90;;;;;;21088093;28;20055;-48
2023/06/14 03:55:25;;;;;;;5.03;3.45;;;11.60;99.90;;;;;;21054020;28;20052;-47
2023/06/14 04:05:26;;;;;;;4.55;3.33;;;11.70;99.90;;;;;;21053960;28;20451;-48
2023/06/14 04:15:30;;;;;;;5.85;3.38;;;11.70;99.90;;;;;;21052685;28;20020;-47
2023/06/14 04:25:34;;;;;;;4.13;3.17;;;11.60;99.90;;;;;;21050751;28;20065;-44
2023/06/14 04:35:37;;;;;;;4.57;3.70;;;11.50;99.90;;;;;;21069385;28;20408;-48
2023/06/14 04:45:39;;;;;;;11.00;4.10;;;11.30;99.90;;;;;;21051058;28;20039;-45
2023/06/14 04:55:44;;;;;;;5.47;3.53;;;11.30;99.90;;;;;;21049834;28;20031;-51
2023/06/14 05:05:48;;;;;;;10.80;3.35;;;11.40;99.90;;;;;;21047660;28;20032;-47
2023/06/14 05:15:50;;;;;;;9.05;3.20;;;11.80;99.90;;;;;;21049483;28;20040;-45
2023/06/14 05:25:52;;;;;;;5.35;3.00;;;12.40;99.90;;;;;;21067213;28;20559;-47
2023/06/14 05:35:54;;;;;;;6.70;3.00;;;12.90;99.90;;;;;;21066931;28;20551;-48
2023/06/14 05:45:55;;;;;;;5.03;4.50;;;13.80;99.90;;;;;;21066002;28;20040;-47
2023/06/14 05:55:57;;;;;;;9.68;7.43;;;14.70;99.90;;;;;;21065808;28;20028;-47
2023/06/14 06:05:59;;;;;;;9.25;7.97;;;15.50;99.90;;;;;;21065903;28;20043;-50
2023/06/14 06:16:02;;;;;;;11.38;8.50;;;16.00;99.90;;;;;;21046180;28;20028;-49
2023/06/14 06:26:04;;;;;;;9.55;7.85;;;16.50;99.90;;;;;;21064174;28;20069;-44
2023/06/14 06:36:06;;;;;;;8.05;7.25;;;16.80;99.90;;;;;;21061647;28;20044;-50
2023/06/14 06:46:08;;;;;;;7.43;6.28;;;17.00;99.90;;;;;;21047011;28;20044;-48
2023/06/14 06:56:09;;;;;;;7.93;6.60;;;18.60;99.90;;;;;;21078517;28;20024;-43
2023/06/14 07:06:11;;;;;;;6.93;6.22;;;20.40;99.90;;;;;;21077854;28;20028;-48
2023/06/14 07:16:13;;;;;;;9.70;8.25;;;19.90;99.90;;;;;;21076679;28;20435;-48
2023/06/14 07:26:15;;;;;;;8.55;7.68;;;19.80;99.90;;;;;;21075553;28;20039;-48
2023/06/14 07:36:17;;;;;;;9.23;7.07;;;19.60;99.90;;;;;;21072715;28;20032;-43
2023/06/14 07:46:19;;;;;;;11.43;8.43;;;19.10;99.90;;;;;;21073676;28;20417;-48
2023/06/14 07:56:21;;;;;;;10.75;8.55;;;18.30;99.90;;;;;;21073216;28;20036;-52
2023/06/14 08:06:23;;;;;;;9.45;8.55;;;17.50;99.90;;;;;;21072320;28;20040;-48
2023/06/14 08:16:24;;;;;;;7.97;6.35;;;17.00;99.90;;;;;;21053492;28;20024;-47
2023/06/14 08:26:28;;;;;;;8.57;6.50;;;17.20;99.90;;;;;;21070517;28;20069;-44
2023/06/14 08:36:30;;;;;;;7.90;6.15;;;18.40;99.90;;;;;;21070159;28;20036;-44
2023/06/14 08:46:33;;;;;;;8.63;7.40;;;19.80;99.90;;;;;;21069303;28;20473;-44
2023/06/14 08:56:38;;;;;;;8.70;7.45;;;20.50;99.90;;;;;;21050554;28;20078;-46
2023/06/14 09:06:40;;;;;;;9.23;8.32;;;19.20;99.90;;;;;;21065219;28;20032;-44
2023/06/14 09:16:42;;;;;;;12.25;9.43;;;18.10;99.90;;;;;;21066882;28;20054;-48
2023/06/14 09:26:46;;;;;;;11.63;9.05;;;17.30;99.90;;;;;;21066401;28;20032;-48
2023/06/14 09:36:49;;;;;;;11.23;9.50;;;17.00;99.90;;;;;;21066746;28;20382;-43
2023/06/14 09:46:53;;;;;;;11.85;10.57;;;16.60;99.90;;;;;;21064920;28;20035;-45
2023/06/14 09:56:55;;;;;;;11.77;10.52;;;16.60;99.90;;;;;;21064982;28;20138;-50
2023/06/14 10:06:58;;;;;;;11.45;10.25;;;16.60;99.90;;;;;;21060366;28;20032;-50
2023/06/14 10:17:17;;;;;;;13.32;11.93;;;16.90;99.90;;;;;;21064397;28;20077;-49
2023/06/14 10:27:23;;;;;;;16.00;12.63;;;16.50;99.90;;;;;;21075581;28;20451;-43
2023/06/14 10:37:25;;;;;;;14.02;12.52;;;16.10;99.90;;;;;;21061241;28;20032;-43
2023/06/14 10:47:27;;;;;;;16.77;11.48;;;15.80;99.90;;;;;;21078922;28;20358;-48
2023/06/14 10:57:31;;;;;;;10.23;8.95;;;16.30;99.90;;;;;;21073659;28;20085;-48
2023/06/14 11:07:51;;;;;;;8.23;7.43;;;17.10;99.90;;;;;;21077285;28;20032;-50
2023/06/14 11:17:57;;;;;;;8.57;7.57;;;18.00;99.90;;;;;;21076211;28;20036;-47
2023/06/14 11:27:59;;;;;;;7.60;6.80;;;19.20;99.90;;;;;;21054262;28;20032;-43
2023/06/14 11:38:02;;;;;;;9.35;6.90;;;20.10;99.90;;;;;;21074507;28;20062;-44
2023/06/14 11:48:03;;;;;;;9.45;7.05;;;22.60;99.90;;;;;;21073852;28;20519;-49
2023/06/14 11:58:06;;;;;;;6.70;5.20;;;24.30;99.90;;;;;;21073013;28;20036;-52
2023/06/14 12:08:07;;;;;;;4.45;4.03;;;23.20;99.90;;;;;;21071987;28;20038;-52
2023/06/14 12:18:11;;;;;;;5.32;4.80;;;23.00;99.90;;;;;;21068198;28;20028;-54
2023/06/14 12:28:12;;;;;;;5.60;5.10;;;22.40;99.90;;;;;;21067553;28;20032;-54
2023/06/14 12:38:16;;;;;;;6.70;4.78;;;23.90;99.90;;;;;;21051652;28;20331;-54
2023/06/14 12:48:19;;;;;;;6.00;5.07;;;24.50;99.90;;;;;;21064665;28;20477;-50
2023/06/14 12:58:21;;;;;;;5.95;5.35;;;23.00;99.90;;;;;;21068506;28;20032;-53
2023/06/14 13:08:30;;;;;;;5.43;4.93;;;21.90;99.30;;;;;;21062451;28;20494;-50
2023/06/14 13:18:33;;;;;;;6.55;5.70;;;23.40;99.90;;;;;;21063582;28;20093;-52
2023/06/14 13:28:35;;;;;;;7.97;6.75;;;24.20;99.90;;;;;;21063384;28;20089;-53
2023/06/14 13:38:36;;;;;;;7.75;6.97;;;23.80;99.90;;;;;;21066077;28;20045;-55
2023/06/14 13:48:38;;;;;;;6.68;6.00;;;23.30;99.90;;;;;;21065237;28;20044;-49
2023/06/14 13:58:40;;;;;;;6.57;5.65;;;24.70;99.10;;;;;;21072361;28;20105;-54
2023/06/14 14:08:43;;;;;;;7.72;7.00;;;25.40;99.90;;;;;;21078679;28;20040;-49
2023/06/14 14:18:46;;;;;;;6.65;5.82;;;23.50;99.90;;;;;;21062948;28;20481;-46
2023/06/14 14:28:47;;;;;;;7.35;5.85;;;23.30;99.90;;;;;;21080338;28;20058;-54
2023/06/14 14:38:51;;;;;;;5.68;5.07;;;25.30;99.90;;;;;;21079667;28;20431;-49
2023/06/14 14:48:53;;;;;;;8.77;7.03;;;23.90;99.90;;;;;;21078448;28;20040;-49
2023/06/14 14:58:54;;;;;;;6.50;5.90;;;22.30;99.90;;;;;;21077558;28;20028;-48
2023/06/14 15:08:57;;;;;;;7.35;5.55;;;22.60;99.90;;;;;;21076403;28;20069;-50
2023/06/14 15:18:58;;;;;;;6.57;5.93;;;24.40;99.80;;;;;;21069334;28;20546;-48
2023/06/14 15:29:00;;;;;;;7.38;6.65;;;24.00;99.60;;;;;;21075699;28;20032;-49
2023/06/14 15:39:02;;;;;;;5.93;5.22;;;24.00;99.30;;;;;;21074890;28;20048;-48
2023/06/14 15:49:13;;;;;;;7.10;6.20;;;22.60;99.90;;;;;;21074051;28;20040;-50
2023/06/14 15:59:15;;;;;;;7.10;6.30;;;22.40;99.90;;;;;;21072700;28;20117;-49
2023/06/14 16:09:16;;;;;;;8.10;6.75;;;20.80;99.90;;;;;;21071806;28;20036;-48
2023/06/14 16:19:18;;;;;;;11.50;7.30;;;19.70;99.90;;;;;;21071264;28;20040;-50
2023/06/14 16:29:19;;;;;;;9.43;6.75;;;19.10;99.90;;;;;;21070639;28;20036;-48
2023/06/14 16:39:21;;;;;;;7.68;6.88;;;18.70;99.90;;;;;;21067666;28;20554;-49
2023/06/14 16:49:23;;;;;;;8.65;7.43;;;18.10;99.90;;;;;;21069253;28;20032;-49
2023/06/14 16:59:24;;;;;;;9.07;7.25;;;17.40;99.90;;;;;;21068269;28;20089;-45
2023/06/14 17:09:26;;;;;;;10.43;7.25;;;17.10;99.90;;;;;;21068282;28;20531;-47
2023/06/14 17:19:28;;;;;;;8.57;7.60;;;17.00;99.90;;;;;;21066273;28;20028;-47
2023/06/14 17:29:30;;;;;;;8.52;7.60;;;16.80;99.90;;;;;;21047725;28;20028;-49
2023/06/14 17:39:32;;;;;;;8.18;7.28;;;16.50;99.90;;;;;;21064871;28;20459;-47
2023/06/14 17:49:33;;;;;;;8.40;6.90;;;16.30;99.90;;;;;;21065578;28;20036;-51
2023/06/14 17:59:36;;;;;;;7.40;6.07;;;16.30;99.90;;;;;;21065157;28;20028;-47
2023/06/14 18:09:37;;;;;;;8.38;7.10;;;16.30;99.90;;;;;;21065208;28;20485;-47
2023/06/14 18:19:41;;;;;;;8.35;6.25;;;16.30;99.90;;;;;;21064573;28;20036;-48
2023/06/14 18:29:45;;;;;;;7.22;6.45;;;16.10;99.90;;;;;;21045571;28;20096;-48
2023/06/14 18:39:47;;;;;;;9.00;7.43;;;15.60;99.90;;;;;;21061762;28;20074;-45
2023/06/14 18:49:49;;;;;;;9.20;7.35;;;15.20;99.90;;;;;;21058442;28;20473;-47
2023/06/14 18:59:50;;;;;;;11.07;7.90;;;14.70;99.90;;;;;;21077883;28;20035;-47
2023/06/14 19:09:52;;;;;;;11.65;9.13;;;14.30;99.90;;;;;;21074638;28;20035;-47
2023/06/14 19:19:53;;;;;;;13.40;8.77;;;14.00;99.90;;;;;;21076397;28;20419;-50
2023/06/14 19:29:55;;;;;;;10.95;9.32;;;13.80;99.90;;;;;;21075417;28;20036;-44
2023/06/14 19:39:57;;;;;;;12.48;9.13;;;13.70;99.90;;;;;;21057398;28;20052;-51
2023/06/14 19:49:59;;;;;;;11.63;9.07;;;13.70;99.90;;;;;;21074155;28;20032;-47
2023/06/14 20:00:03;;;;;;;13.23;8.80;;;13.70;99.90;;;;;;21072737;28;20036;-45
2023/06/14 20:10:10;;;;;;;14.40;11.85;;;13.50;99.90;;;;;;21072625;28;20027;-47
2023/06/14 20:20:12;;;;;;;14.77;12.32;;;13.30;99.90;;;;;;21071244;28;20049;-48
2023/06/14 20:30:13;;;;;;;21.33;14.07;;;13.00;99.90;;;;;;21052537;28;20382;-45
2023/06/14 20:40:25;;;;;;;17.85;14.18;;;12.80;99.90;;;;;;21069476;28;20044;-46
2023/06/14 20:50:27;;;;;;;20.33;15.15;;;12.70;99.90;;;;;;21067210;28;20028;-46
2023/06/14 21:00:28;;;;;;;23.20;16.33;;;12.60;99.90;;;;;;21068365;28;20036;-48
2023/06/14 21:10:33;;;;;;;24.65;18.42;;;12.50;99.90;;;;;;21066965;28;20435;-48
2023/06/14 21:20:35;;;;;;;34.00;24.40;;;12.40;99.90;;;;;;21067505;28;20031;-47
2023/06/14 21:30:37;;;;;;;36.38;27.23;;;12.60;99.90;;;;;;21066345;28;20061;-46
2023/06/14 21:40:41;;;;;;;40.58;28.13;;;12.60;99.90;;;;;;21047642;28;20056;-47
2023/06/14 21:50:44;;;;;;;28.60;22.15;;;12.70;99.90;;;;;;21068696;28;20048;-46
2023/06/14 22:00:46;;;;;;;28.90;21.90;;;12.70;99.90;;;;;;21064952;28;20028;-47
2023/06/14 22:10:49;;;;;;;25.95;21.52;;;12.60;99.90;;;;;;21046633;28;20028;-50
2023/06/14 22:20:50;;;;;;;29.02;21.38;;;12.60;99.90;;;;;;21073810;28;20090;-46
2023/06/14 22:30:57;;;;;;;34.63;25.17;;;12.60;99.90;;;;;;21080302;28;20393;-49
2023/06/14 22:40:59;;;;;;;52.55;32.28;;;12.50;99.90;;;;;;21061081;28;20554;-47
2023/06/14 22:51:01;;;;;;;37.90;27.75;;;12.40;99.90;;;;;;21079134;28;20040;-43
2023/06/14 23:01:03;;;;;;;40.95;27.10;;;12.40;99.90;;;;;;21075136;28;20401;-48
2023/06/14 23:11:05;;;;;;;13.10;11.52;;;12.30;99.90;;;;;;21076867;28;20453;-47
2023/06/14 23:21:07;;;;;;;17.35;10.63;;;11.90;99.90;;;;;;21058433;28;20028;-48
2023/06/14 23:31:09;;;;;;;8.43;7.05;;;11.60;99.90;;;;;;21074946;28;20039;-47
2023/06/14 23:41:11;;;;;;;8.27;6.97;;;11.30;99.90;;;;;;21074478;28;20056;-50
2023/06/14 23:51:12;;;;;;;9.40;7.30;;;11.20;99.90;;;;;;21074515;28;20024;-45
